createdAt,value
2023-01-03T00:01:07.499Z,97465.08
2023-01-03T00:11:17.440Z,97470.59
2023-01-03T00:21:20.018Z,97476.63
2023-01-03T00:31:22.892Z,97478.80
2023-01-03T00:41:25.887Z,97494.67
2023-01-03T00:51:31.195Z,97513.61
2023-01-03T01:01:45.792Z,97523.09
2023-01-03T01:11:50.407Z,97529.06
2023-01-03T01:21:52.929Z,97532.02
2023-01-03T01:31:55.623Z,97535.59
2023-01-03T01:42:30.454Z,97540.34
2023-01-03T01:52:38.963Z,97549.50
2023-01-03T02:02:42.722Z,97551.58
2023-01-03T02:13:08.224Z,97548.14
2023-01-03T02:23:32.613Z,97552.04
2023-01-03T02:34:01.177Z,97553.23
2023-01-03T02:44:39.677Z,97560.77
2023-01-03T02:54:46.771Z,97562.33
2023-01-03T03:04:55.293Z,97565.93
2023-01-03T03:14:58.614Z,97565.50
2023-01-03T03:25:06.479Z,97570.98
2023-01-03T03:35:14.588Z,97573.69
2023-01-03T03:45:24.484Z,97582.36
2023-01-03T03:55:49.987Z,97580.92
2023-01-03T04:06:00.221Z,97588.66
2023-01-03T04:16:03.953Z,97593.51
2023-01-03T04:26:06.302Z,97605.50
2023-01-03T04:36:09.435Z,97618.04
2023-01-03T04:46:11.782Z,97633.38
2023-01-03T04:56:14.152Z,97649.16
2023-01-03T05:06:17.059Z,97653.38
2023-01-03T05:16:19.410Z,97661.63
2023-01-03T05:26:22.520Z,97659.66
2023-01-03T05:36:24.897Z,97669.34
2023-01-03T05:46:27.216Z,97678.67
2023-01-03T05:56:31.358Z,97684.77
2023-01-03T06:06:33.653Z,97684.38
2023-01-03T06:16:54.961Z,97690.31
2023-01-03T06:26:59.763Z,97718.73
2023-01-03T06:37:02.092Z,97733.88
2023-01-03T06:47:23.017Z,97738.63
2023-01-03T06:57:27.327Z,97748.70
2023-01-03T07:07:30.793Z,97770.82
2023-01-03T07:17:33.561Z,97784.61
2023-01-03T07:27:36.162Z,97798.16
2023-01-03T07:37:38.463Z,97812.91
2023-01-03T07:47:44.997Z,97822.89
2023-01-03T07:57:47.443Z,97833.52
2023-01-03T08:07:51.769Z,97846.64
2023-01-03T08:17:54.400Z,97860.98
2023-01-03T08:28:01.010Z,97867.45
2023-01-03T08:38:06.419Z,97866.48
2023-01-03T08:48:10.151Z,97866.81
2023-01-03T08:58:12.687Z,97871.30
2023-01-03T09:08:18.254Z,97869.95
2023-01-03T09:18:20.807Z,97886.60
2023-01-03T09:28:23.621Z,97884.89
2023-01-03T09:38:26.043Z,97894.80
2023-01-03T09:48:38.223Z,97893.83
2023-01-03T09:59:01.224Z,97886.41
2023-01-03T10:09:12.538Z,97879.25
2023-01-03T10:19:33.491Z,97878.80
2023-01-03T10:29:36.033Z,97882.73
2023-01-03T10:39:40.559Z,97891.41
2023-01-03T10:49:46.925Z,97884.84
2023-01-03T10:59:50.804Z,97880.10
2023-01-03T11:09:55.637Z,97885.90
2023-01-03T11:19:58.248Z,97878.71
2023-01-03T11:30:12.841Z,97877.42
2023-01-03T11:40:52.213Z,97872.95
2023-01-03T11:51:17.414Z,97874.97
2023-01-03T12:01:54.805Z,97875.48
2023-01-03T12:12:30.408Z,97872.06
2023-01-03T12:22:41.704Z,97866.61
2023-01-03T12:33:00.884Z,97859.27
2023-01-03T12:43:24.926Z,97857.15
2023-01-03T12:53:43.621Z,97857.38
2023-01-03T13:03:57.891Z,97858.23
2023-01-03T13:14:20.678Z,97858.16
2023-01-03T13:24:50.955Z,97857.36
2023-01-03T13:34:56.476Z,97853.77
2023-01-03T13:45:10.844Z,97853.50
2023-01-03T13:55:55.106Z,97853.42
2023-01-03T14:06:14.919Z,97853.26
2023-01-03T14:16:35.794Z,97858.25
2023-01-03T14:26:38.266Z,97862.83
2023-01-03T14:36:48.206Z,97867.84
2023-01-03T14:46:54.079Z,97871.24
2023-01-03T14:56:56.874Z,97875.04
2023-01-03T15:07:13.224Z,97876.50
2023-01-03T15:17:19.891Z,97885.20
2023-01-03T15:27:38.961Z,97895.02
2023-01-03T15:37:43.711Z,97902.20
2023-01-03T15:47:48.736Z,97910.10
2023-01-03T15:57:53.926Z,97926.64
2023-01-03T16:07:57.380Z,97938.10
2023-01-03T16:18:10.089Z,97950.21
2023-01-03T16:28:13.862Z,97952.40
2023-01-03T16:38:17.563Z,97967.74
2023-01-03T16:48:23.668Z,97972.23
2023-01-03T16:58:26.576Z,97980.58
2023-01-03T17:08:45.964Z,97987.27
2023-01-03T17:18:50.643Z,97988.28
2023-01-03T17:28:55.543Z,97987.36
2023-01-03T17:39:02.785Z,97998.11
2023-01-03T17:49:25.107Z,98000.80
2023-01-03T17:59:28.723Z,98006.41
2023-01-03T18:09:32.686Z,98011.79
2023-01-03T18:19:36.051Z,98018.14
2023-01-03T18:30:00.595Z,98023.46
2023-01-03T18:40:08.359Z,98024.85
2023-01-03T18:50:19.087Z,98023.70
2023-01-03T19:00:28.172Z,98023.70
2023-01-03T19:10:31.625Z,98029.45
2023-01-03T19:20:37.103Z,98020.86
2023-01-03T19:30:46.256Z,98029.13
2023-01-03T19:40:50.096Z,98036.83
2023-01-03T19:50:53.955Z,98038.09
2023-01-03T20:00:59.176Z,98039.30
2023-01-03T20:11:08.373Z,98045.19
2023-01-03T20:21:23.598Z,98041.33
2023-01-03T20:31:29.098Z,98047.61
2023-01-03T20:41:37.191Z,98053.06
2023-01-03T20:51:41.232Z,98056.84
2023-01-03T21:02:21.343Z,98062.29
2023-01-03T21:12:37.786Z,98068.27
2023-01-03T21:22:43.491Z,98068.83
2023-01-03T21:32:47.072Z,98070.38
2023-01-03T21:43:04.113Z,98068.58
2023-01-03T21:53:16.905Z,98070.80
2023-01-03T22:03:38.953Z,98079.05
2023-01-03T22:13:42.552Z,98085.97
2023-01-03T22:23:45.224Z,98089.96
2023-01-03T22:33:48.755Z,98091.91
2023-01-03T22:43:53.051Z,98092.25
2023-01-03T22:53:56.804Z,98091.85
2023-01-03T23:04:00.833Z,98095.95
2023-01-03T23:14:07.211Z,98092.80
2023-01-03T23:24:13.415Z,98095.90
2023-01-03T23:34:15.894Z,98092.11
2023-01-03T23:44:18.640Z,98086.70
2023-01-03T23:54:21.577Z,98084.34
